sensor_id;sensor_type;location;lat;lon;timestamp;pressure;altitude;pressure_sealevel;temperature;humidity
49122;BME280;35529;44.342;25.944;2023-03-16T00:00:15;99745.84;;;8.78;100.00
49122;BME280;35529;44.342;25.944;2023-03-16T00:02:44;99756.44;;;8.78;100.00
49122;BME280;35529;44.342;25.944;2023-03-16T00:05:11;99747.47;;;8.79;100.00
49122;BME280;35529;44.342;25.944;2023-03-16T00:07:37;99746.44;;;8.80;100.00
49122;BME280;35529;44.342;25.944;2023-03-16T00:10:04;99745.44;;;8.81;100.00
49122;BME280;35529;44.342;25.944;2023-03-16T00:12:36;99752.16;;;8.83;100.00
49122;BME280;35529;44.342;25.944;2023-03-16T00:15:04;99738.28;;;8.81;100.00
49122;BME280;35529;44.342;25.944;2023-03-16T00:17:33;99728.53;;;8.82;100.00
49122;BME280;35529;44.342;25.944;2023-03-16T00:20:02;99743.19;;;8.78;100.00
49122;BME280;35529;44.342;25.944;2023-03-16T00:22:32;99738.13;;;8.76;100.00
49122;BME280;35529;44.342;25.944;2023-03-16T00:25:00;99737.28;;;8.76;100.00
49122;BME280;35529;44.342;25.944;2023-03-16T00:27:29;99742.38;;;8.77;100.00
49122;BME280;35529;44.342;25.944;2023-03-16T00:29:58;99735.06;;;8.79;100.00
49122;BME280;35529;44.342;25.944;2023-03-16T00:32:27;99745.00;;;8.77;100.00
49122;BME280;35529;44.342;25.944;2023-03-16T00:34:58;99729.13;;;8.77;100.00
49122;BME280;35529;44.342;25.944;2023-03-16T00:37:27;99733.84;;;8.82;100.00
49122;BME280;35529;44.342;25.944;2023-03-16T00:39:53;99733.22;;;8.80;100.00
49122;BME280;35529;44.342;25.944;2023-03-16T00:42:24;99733.41;;;8.78;100.00
49122;BME280;35529;44.342;25.944;2023-03-16T00:44:58;99743.59;;;8.81;100.00
49122;BME280;35529;44.342;25.944;2023-03-16T00:47:28;99741.16;;;8.80;100.00
49122;BME280;35529;44.342;25.944;2023-03-16T00:49:57;99744.41;;;8.82;100.00
49122;BME280;35529;44.342;25.944;2023-03-16T00:52:23;99742.19;;;8.85;100.00
49122;BME280;35529;44.342;25.944;2023-03-16T00:54:52;99759.88;;;8.85;100.00
49122;BME280;35529;44.342;25.944;2023-03-16T00:57:19;99761.53;;;8.86;100.00
49122;BME280;35529;44.342;25.944;2023-03-16T00:59:48;99764.16;;;8.86;100.00
49122;BME280;35529;44.342;25.944;2023-03-16T01:02:17;99761.94;;;8.83;100.00
49122;BME280;35529;44.342;25.944;2023-03-16T01:04:44;99767.84;;;8.85;100.00
49122;BME280;35529;44.342;25.944;2023-03-16T01:07:12;99766.00;;;8.85;100.00
49122;BME280;35529;44.342;25.944;2023-03-16T01:09:39;99774.75;;;8.93;100.00
49122;BME280;35529;44.342;25.944;2023-03-16T01:12:09;99773.34;;;8.97;100.00
49122;BME280;35529;44.342;25.944;2023-03-16T01:14:36;99779.06;;;9.00;100.00
49122;BME280;35529;44.342;25.944;2023-03-16T01:17:03;99776.19;;;9.02;100.00
49122;BME280;35529;44.342;25.944;2023-03-16T01:19:30;99798.81;;;8.98;100.00
49122;BME280;35529;44.342;25.944;2023-03-16T01:21:58;99796.75;;;9.00;100.00
49122;BME280;35529;44.342;25.944;2023-03-16T01:24:24;99799.19;;;9.01;100.00
49122;BME280;35529;44.342;25.944;2023-03-16T01:26:51;99803.91;;;8.99;100.00
49122;BME280;35529;44.342;25.944;2023-03-16T01:29:17;99807.34;;;9.00;100.00
49122;BME280;35529;44.342;25.944;2023-03-16T01:31:43;99806.13;;;8.96;100.00
49122;BME280;35529;44.342;25.944;2023-03-16T01:34:09;99811.84;;;8.93;100.00
49122;BME280;35529;44.342;25.944;2023-03-16T01:36:41;99812.63;;;8.93;100.00
49122;BME280;35529;44.342;25.944;2023-03-16T01:39:12;99820.56;;;8.93;100.00
49122;BME280;35529;44.342;25.944;2023-03-16T01:41:39;99806.53;;;8.86;100.00
49122;BME280;35529;44.342;25.944;2023-03-16T01:44:11;99807.53;;;8.85;100.00
49122;BME280;35529;44.342;25.944;2023-03-16T01:46:40;99823.63;;;8.77;100.00
49122;BME280;35529;44.342;25.944;2023-03-16T01:49:10;99824.03;;;8.74;100.00
49122;BME280;35529;44.342;25.944;2023-03-16T01:51:41;99825.63;;;8.75;100.00
49122;BME280;35529;44.342;25.944;2023-03-16T01:54:10;99829.31;;;8.74;100.00
49122;BME280;35529;44.342;25.944;2023-03-16T01:56:41;99824.03;;;8.74;100.00
49122;BME280;35529;44.342;25.944;2023-03-16T01:59:11;99822.38;;;8.72;100.00
49122;BME280;35529;44.342;25.944;2023-03-16T02:01:39;99819.13;;;8.70;100.00
49122;BME280;35529;44.342;25.944;2023-03-16T02:06:52;99831.13;;;8.66;100.00
49122;BME280;35529;44.342;25.944;2023-03-16T02:09:19;99822.56;;;8.64;100.00
49122;BME280;35529;44.342;25.944;2023-03-16T02:11:49;99834.59;;;8.67;100.00
49122;BME280;35529;44.342;25.944;2023-03-16T02:14:15;99835.41;;;8.67;100.00
49122;BME280;35529;44.342;25.944;2023-03-16T02:16:42;99832.16;;;8.65;100.00
49122;BME280;35529;44.342;25.944;2023-03-16T02:19:10;99846.78;;;8.61;100.00
49122;BME280;35529;44.342;25.944;2023-03-16T02:21:40;99847.41;;;8.63;100.00
49122;BME280;35529;44.342;25.944;2023-03-16T02:24:09;99846.59;;;8.63;100.00
49122;BME280;35529;44.342;25.944;2023-03-16T02:29:22;99853.31;;;8.59;100.00
49122;BME280;35529;44.342;25.944;2023-03-16T02:31:55;99846.56;;;8.56;100.00
49122;BME280;35529;44.342;25.944;2023-03-16T02:34:21;99850.44;;;8.53;100.00
49122;BME280;35529;44.342;25.944;2023-03-16T02:36:50;99845.34;;;8.52;100.00
49122;BME280;35529;44.342;25.944;2023-03-16T02:39:17;99854.28;;;8.51;100.00
49122;BME280;35529;44.342;25.944;2023-03-16T02:41:44;99847.56;;;8.48;100.00
49122;BME280;35529;44.342;25.944;2023-03-16T02:44:15;99847.75;;;8.47;100.00
49122;BME280;35529;44.342;25.944;2023-03-16T02:46:43;99844.28;;;8.46;100.00
49122;BME280;35529;44.342;25.944;2023-03-16T02:49:27;99852.00;;;8.48;100.00
49122;BME280;35529;44.342;25.944;2023-03-16T02:51:55;99847.56;;;8.48;100.00
49122;BME280;35529;44.342;25.944;2023-03-16T02:54:22;99849.38;;;8.48;100.00
49122;BME280;35529;44.342;25.944;2023-03-16T02:56:49;99843.66;;;8.44;100.00
49122;BME280;35529;44.342;25.944;2023-03-16T02:59:15;99866.22;;;8.40;100.00
49122;BME280;35529;44.342;25.944;2023-03-16T03:01:42;99858.25;;;8.33;100.00
49122;BME280;35529;44.342;25.944;2023-03-16T03:04:08;99843.81;;;8.29;100.00
49122;BME280;35529;44.342;25.944;2023-03-16T03:06:34;99865.75;;;8.30;100.00
49122;BME280;35529;44.342;25.944;2023-03-16T03:09:00;99852.13;;;8.33;100.00
49122;BME280;35529;44.342;25.944;2023-03-16T03:11:27;99848.88;;;8.31;100.00
49122;BME280;35529;44.342;25.944;2023-03-16T03:13:53;99852.75;;;8.28;100.00
49122;BME280;35529;44.342;25.944;2023-03-16T03:16:20;99858.84;;;8.29;100.00
49122;BME280;35529;44.342;25.944;2023-03-16T03:18:46;99858.03;;;8.28;100.00
49122;BME280;35529;44.342;25.944;2023-03-16T03:21:13;99852.09;;;8.26;100.00
49122;BME280;35529;44.342;25.944;2023-03-16T03:23:39;99856.16;;;8.22;100.00
49122;BME280;35529;44.342;25.944;2023-03-16T03:26:08;99855.56;;;8.20;100.00
49122;BME280;35529;44.342;25.944;2023-03-16T03:28:34;99859.41;;;8.17;100.00
49122;BME280;35529;44.342;25.944;2023-03-16T03:31:04;99855.31;;;8.15;100.00
49122;BME280;35529;44.342;25.944;2023-03-16T03:33:33;99870.19;;;8.16;100.00
49122;BME280;35529;44.342;25.944;2023-03-16T03:35:59;99872.44;;;8.19;100.00
49122;BME280;35529;44.342;25.944;2023-03-16T03:38:27;99880.97;;;8.21;100.00
49122;BME280;35529;44.342;25.944;2023-03-16T03:40:59;99895.44;;;8.18;100.00
49122;BME280;35529;44.342;25.944;2023-03-16T03:43:28;99879.13;;;8.15;100.00
49122;BME280;35529;44.342;25.944;2023-03-16T03:45:57;99889.25;;;8.11;100.00
49122;BME280;35529;44.342;25.944;2023-03-16T03:48:26;99900.84;;;8.10;100.00
49122;BME280;35529;44.342;25.944;2023-03-16T03:50:55;99896.97;;;8.06;100.00
49122;BME280;35529;44.342;25.944;2023-03-16T03:53:26;99911.16;;;7.98;100.00
49122;BME280;35529;44.342;25.944;2023-03-16T03:55:52;99897.31;;;7.96;100.00
49122;BME280;35529;44.342;25.944;2023-03-16T03:58:23;99900.91;;;7.88;100.00
49122;BME280;35529;44.342;25.944;2023-03-16T04:00:55;99907.19;;;7.87;100.00
49122;BME280;35529;44.342;25.944;2023-03-16T04:03:21;99909.44;;;7.84;100.00
49122;BME280;35529;44.342;25.944;2023-03-16T04:05:47;99912.84;;;7.78;100.00
49122;BME280;35529;44.342;25.944;2023-03-16T04:08:13;99908.53;;;7.77;100.00
49122;BME280;35529;44.342;25.944;2023-03-16T04:10:39;99917.25;;;7.70;100.00
49122;BME280;35529;44.342;25.944;2023-03-16T04:13:05;99914.97;;;7.67;100.00
49122;BME280;35529;44.342;25.944;2023-03-16T04:15:31;99921.91;;;7.68;100.00
49122;BME280;35529;44.342;25.944;2023-03-16T04:17:58;99921.28;;;7.66;100.00
49122;BME280;35529;44.342;25.944;2023-03-16T04:20:24;99915.38;;;7.64;100.00
49122;BME280;35529;44.342;25.944;2023-03-16T04:22:50;99922.84;;;7.61;100.00
49122;BME280;35529;44.342;25.944;2023-03-16T04:25:23;99929.97;;;7.60;100.00
49122;BME280;35529;44.342;25.944;2023-03-16T04:27:51;99923.06;;;7.59;100.00
49122;BME280;35529;44.342;25.944;2023-03-16T04:30:17;99936.91;;;7.61;100.00
49122;BME280;35529;44.342;25.944;2023-03-16T04:32:43;99946.47;;;7.62;100.00
49122;BME280;35529;44.342;25.944;2023-03-16T04:35:09;99949.47;;;7.59;100.00
49122;BME280;35529;44.342;25.944;2023-03-16T04:37:36;99950.31;;;7.60;100.00
49122;BME280;35529;44.342;25.944;2023-03-16T04:40:02;99957.19;;;7.61;100.00
49122;BME280;35529;44.342;25.944;2023-03-16T04:42:36;99968.59;;;7.61;100.00
49122;BME280;35529;44.342;25.944;2023-03-16T04:45:03;99980.44;;;7.65;100.00
49122;BME280;35529;44.342;25.944;2023-03-16T04:47:29;99970.66;;;7.66;100.00
49122;BME280;35529;44.342;25.944;2023-03-16T04:49:55;99976.41;;;7.69;100.00
49122;BME280;35529;44.342;25.944;2023-03-16T04:52:23;99987.16;;;7.68;100.00
49122;BME280;35529;44.342;25.944;2023-03-16T04:54:51;99976.41;;;7.69;100.00
49122;BME280;35529;44.342;25.944;2023-03-16T04:57:17;99994.25;;;7.67;100.00
49122;BME280;35529;44.342;25.944;2023-03-16T04:59:44;99984.88;;;7.65;100.00
49122;BME280;35529;44.342;25.944;2023-03-16T05:02:10;99996.28;;;7.65;100.00
49122;BME280;35529;44.342;25.944;2023-03-16T05:04:36;99987.34;;;7.66;100.00
49122;BME280;35529;44.342;25.944;2023-03-16T05:07:02;99992.63;;;7.66;100.00
49122;BME280;35529;44.342;25.944;2023-03-16T05:09:28;99991.19;;;7.64;100.00
49122;BME280;35529;44.342;25.944;2023-03-16T05:11:54;99997.91;;;7.66;100.00
49122;BME280;35529;44.342;25.944;2023-03-16T05:14:20;99995.91;;;7.68;100.00
49122;BME280;35529;44.342;25.944;2023-03-16T05:16:47;100001.00;;;7.70;100.00
49122;BME280;35529;44.342;25.944;2023-03-16T05:19:13;100004.66;;;7.69;100.00
49122;BME280;35529;44.342;25.944;2023-03-16T05:21:39;100002.19;;;7.67;100.00
49122;BME280;35529;44.342;25.944;2023-03-16T05:24:05;100015.38;;;7.67;100.00
49122;BME280;35529;44.342;25.944;2023-03-16T05:26:31;100013.78;;;7.66;100.00
49122;BME280;35529;44.342;25.944;2023-03-16T05:28:57;100030.25;;;7.68;100.00
49122;BME280;35529;44.342;25.944;2023-03-16T05:31:23;100037.19;;;7.69;100.00
49122;BME280;35529;44.342;25.944;2023-03-16T05:33:52;100034.53;;;7.69;100.00
49122;BME280;35529;44.342;25.944;2023-03-16T05:36:19;100035.97;;;7.72;100.00
49122;BME280;35529;44.342;25.944;2023-03-16T05:38:45;100038.63;;;7.72;100.00
49122;BME280;35529;44.342;25.944;2023-03-16T05:41:12;100047.75;;;7.69;100.00
49122;BME280;35529;44.342;25.944;2023-03-16T05:43:39;100049.38;;;7.70;100.00
49122;BME280;35529;44.342;25.944;2023-03-16T05:46:05;100045.09;;;7.69;100.00
49122;BME280;35529;44.342;25.944;2023-03-16T05:48:34;100053.41;;;7.66;100.00
49122;BME280;35529;44.342;25.944;2023-03-16T05:51:00;100065.38;;;7.62;100.00
49122;BME280;35529;44.342;25.944;2023-03-16T05:53:29;100064.06;;;7.58;100.00
49122;BME280;35529;44.342;25.944;2023-03-16T05:55:55;100056.00;;;7.60;100.00
49122;BME280;35529;44.342;25.944;2023-03-16T05:58:21;100064.06;;;7.58;100.00
49122;BME280;35529;44.342;25.944;2023-03-16T06:00:48;100060.44;;;7.59;100.00
49122;BME280;35529;44.342;25.944;2023-03-16T06:03:15;100070.00;;;7.60;100.00
49122;BME280;35529;44.342;25.944;2023-03-16T06:05:42;100067.16;;;7.62;100.00
49122;BME280;35529;44.342;25.944;2023-03-16T06:08:12;100070.00;;;7.60;100.00
49122;BME280;35529;44.342;25.944;2023-03-16T06:10:41;100079.84;;;7.51;100.00
49122;BME280;35529;44.342;25.944;2023-03-16T06:13:09;100086.28;;;7.42;100.00
49122;BME280;35529;44.342;25.944;2023-03-16T06:15:36;100080.91;;;7.35;100.00
49122;BME280;35529;44.342;25.944;2023-03-16T06:18:02;100093.47;;;7.33;100.00
49122;BME280;35529;44.342;25.944;2023-03-16T06:20:28;100092.03;;;7.31;100.00
49122;BME280;35529;44.342;25.944;2023-03-16T06:22:54;100103.16;;;7.26;100.00
49122;BME280;35529;44.342;25.944;2023-03-16T06:25:20;100096.59;;;7.22;100.00
49122;BME280;35529;44.342;25.944;2023-03-16T06:27:46;100098.59;;;7.20;100.00
49122;BME280;35529;44.342;25.944;2023-03-16T06:30:14;100117.97;;;7.27;100.00
49122;BME280;35529;44.342;25.944;2023-03-16T06:32:40;100117.81;;;7.29;100.00
49122;BME280;35529;44.342;25.944;2023-03-16T06:35:07;100121.44;;;7.28;100.00
49122;BME280;35529;44.342;25.944;2023-03-16T06:37:36;100121.06;;;7.31;100.00
49122;BME280;35529;44.342;25.944;2023-03-16T06:40:02;100121.06;;;7.31;100.00
49122;BME280;35529;44.342;25.944;2023-03-16T06:42:29;100125.16;;;7.33;100.00
49122;BME280;35529;44.342;25.944;2023-03-16T06:44:55;100136.19;;;7.37;100.00
49122;BME280;35529;44.342;25.944;2023-03-16T06:47:21;100140.63;;;7.36;100.00
49122;BME280;35529;44.342;25.944;2023-03-16T06:49:47;100139.03;;;7.35;100.00
49122;BME280;35529;44.342;25.944;2023-03-16T06:52:15;100135.72;;;7.33;100.00
49122;BME280;35529;44.342;25.944;2023-03-16T06:54:42;100130.53;;;7.40;100.00
49122;BME280;35529;44.342;25.944;2023-03-16T06:57:08;100143.81;;;7.47;100.00
49122;BME280;35529;44.342;25.944;2023-03-16T06:59:34;100139.81;;;7.51;100.00
49122;BME280;35529;44.342;25.944;2023-03-16T07:02:00;100152.41;;;7.49;100.00
49122;BME280;35529;44.342;25.944;2023-03-16T07:04:26;100148.84;;;7.42;100.00
49122;BME280;35529;44.342;25.944;2023-03-16T07:06:52;100159.03;;;7.45;100.00
49122;BME280;35529;44.342;25.944;2023-03-16T07:09:18;100155.38;;;7.46;100.00
49122;BME280;35529;44.342;25.944;2023-03-16T07:11:47;100164.78;;;7.48;100.00
49122;BME280;35529;44.342;25.944;2023-03-16T07:14:13;100172.50;;;7.50;100.00
49122;BME280;35529;44.342;25.944;2023-03-16T07:16:39;100169.06;;;7.49;100.00
49122;BME280;35529;44.342;25.944;2023-03-16T07:19:05;100177.97;;;7.48;100.00
49122;BME280;35529;44.342;25.944;2023-03-16T07:21:32;100180.63;;;7.48;100.00
49122;BME280;35529;44.342;25.944;2023-03-16T07:24:04;100192.03;;;7.49;100.00
49122;BME280;35529;44.342;25.944;2023-03-16T07:26:30;100188.16;;;7.51;100.00
49122;BME280;35529;44.342;25.944;2023-03-16T07:28:57;100195.28;;;7.51;100.00
49122;BME280;35529;44.342;25.944;2023-03-16T07:31:24;100196.28;;;7.50;100.00
49122;BME280;35529;44.342;25.944;2023-03-16T07:33:50;100198.72;;;7.51;100.00
49122;BME280;35529;44.342;25.944;2023-03-16T07:36:17;100200.94;;;7.48;100.00
49122;BME280;35529;44.342;25.944;2023-03-16T07:38:43;100202.13;;;7.45;100.00
49122;BME280;35529;44.342;25.944;2023-03-16T07:41:09;100211.75;;;7.38;100.00
49122;BME280;35529;44.342;25.944;2023-03-16T07:43:35;100202.03;;;7.38;100.00
49122;BME280;35529;44.342;25.944;2023-03-16T07:46:01;100206.13;;;7.41;100.00
49122;BME280;35529;44.342;25.944;2023-03-16T07:48:27;100216.06;;;7.39;100.00
49122;BME280;35529;44.342;25.944;2023-03-16T07:50:53;100208.31;;;7.37;100.00
49122;BME280;35529;44.342;25.944;2023-03-16T07:53:19;100226.44;;;7.41;100.00
49122;BME280;35529;44.342;25.944;2023-03-16T07:55:45;100219.16;;;7.43;100.00
49122;BME280;35529;44.342;25.944;2023-03-16T07:58:12;100229.06;;;7.41;100.00
49122;BME280;35529;44.342;25.944;2023-03-16T08:00:38;100222.78;;;7.42;100.00
49122;BME280;35529;44.342;25.944;2023-03-16T08:03:04;100227.72;;;7.45;100.00
49122;BME280;35529;44.342;25.944;2023-03-16T08:05:31;100238.91;;;7.47;100.00
49122;BME280;35529;44.342;25.944;2023-03-16T08:07:57;100248.13;;;7.51;100.00
49122;BME280;35529;44.342;25.944;2023-03-16T08:10:23;100252.59;;;7.50;100.00
49122;BME280;35529;44.342;25.944;2023-03-16T08:12:50;100246.19;;;7.45;100.00
49122;BME280;35529;44.342;25.944;2023-03-16T08:15:16;100251.84;;;7.42;100.00
49122;BME280;35529;44.342;25.944;2023-03-16T08:17:45;100248.59;;;7.40;100.00
49122;BME280;35529;44.342;25.944;2023-03-16T08:20:14;100263.59;;;7.39;100.00
49122;BME280;35529;44.342;25.944;2023-03-16T08:22:41;100261.59;;;7.41;100.00
49122;BME280;35529;44.342;25.944;2023-03-16T08:25:10;100259.16;;;7.40;100.00
49122;BME280;35529;44.342;25.944;2023-03-16T08:27:37;100266.06;;;7.41;100.00
49122;BME280;35529;44.342;25.944;2023-03-16T08:30:04;100261.13;;;7.37;100.00
49122;BME280;35529;44.342;25.944;2023-03-16T08:32:33;100277.63;;;7.40;100.00
49122;BME280;35529;44.342;25.944;2023-03-16T08:35:04;100284.53;;;7.41;100.00
49122;BME280;35529;44.342;25.944;2023-03-16T08:37:30;100289.28;;;7.30;100.00
49122;BME280;35529;44.342;25.944;2023-03-16T08:39:56;100285.00;;;7.29;100.00
49122;BME280;35529;44.342;25.944;2023-03-16T08:42:25;100294.00;;;7.20;100.00
49122;BME280;35529;44.342;25.944;2023-03-16T08:44:59;100300.63;;;7.16;100.00
49122;BME280;35529;44.342;25.944;2023-03-16T08:47:25;100293.06;;;7.13;100.00
49122;BME280;35529;44.342;25.944;2023-03-16T08:49:54;100292.00;;;6.99;100.00
49122;BME280;35529;44.342;25.944;2023-03-16T08:52:20;100297.94;;;6.78;100.00
49122;BME280;35529;44.342;25.944;2023-03-16T08:54:47;100307.38;;;6.72;100.00
49122;BME280;35529;44.342;25.944;2023-03-16T08:57:13;100313.38;;;6.66;100.00
49122;BME280;35529;44.342;25.944;2023-03-16T08:59:40;100311.78;;;6.57;100.00
49122;BME280;35529;44.342;25.944;2023-03-16T09:02:09;100316.28;;;6.48;100.00
49122;BME280;35529;44.342;25.944;2023-03-16T09:04:36;100317.78;;;6.42;100.00
49122;BME280;35529;44.342;25.944;2023-03-16T09:07:02;100324.75;;;6.35;100.00
49122;BME280;35529;44.342;25.944;2023-03-16T09:09:28;100320.31;;;6.35;100.00
49122;BME280;35529;44.342;25.944;2023-03-16T09:11:55;100319.56;;;6.50;100.00
49122;BME280;35529;44.342;25.944;2023-03-16T09:14:21;100332.22;;;6.54;100.00
49122;BME280;35529;44.342;25.944;2023-03-16T09:16:48;100330.06;;;6.58;100.00
49122;BME280;35529;44.342;25.944;2023-03-16T09:19:14;100336.16;;;6.59;100.00
49122;BME280;35529;44.342;25.944;2023-03-16T09:21:40;100337.16;;;6.58;100.00
49122;BME280;35529;44.342;25.944;2023-03-16T09:24:06;100347.00;;;6.64;100.00
49122;BME280;35529;44.342;25.944;2023-03-16T09:26:34;100351.56;;;6.78;100.00
49122;BME280;35529;44.342;25.944;2023-03-16T09:29:00;100345.41;;;6.86;100.00
49122;BME280;35529;44.342;25.944;2023-03-16T09:31:27;100350.31;;;6.89;100.00
49122;BME280;35529;44.342;25.944;2023-03-16T09:33:53;100354.06;;;6.95;100.00
49122;BME280;35529;44.342;25.944;2023-03-16T09:36:19;100367.56;;;7.00;100.00
49122;BME280;35529;44.342;25.944;2023-03-16T09:38:45;100367.09;;;6.96;100.00
49122;BME280;35529;44.342;25.944;2023-03-16T09:41:32;100366.22;;;7.04;100.00
49122;BME280;35529;44.342;25.944;2023-03-16T09:46:36;100384.47;;;7.14;100.00
49122;BME280;35529;44.342;25.944;2023-03-16T09:49:07;100387.53;;;7.02;100.00
49122;BME280;35529;44.342;25.944;2023-03-16T09:51:36;100375.91;;;6.88;100.00
49122;BME280;35529;44.342;25.944;2023-03-16T09:54:04;100383.66;;;6.90;100.00
49122;BME280;35529;44.342;25.944;2023-03-16T09:56:38;100391.03;;;6.95;100.00
49122;BME280;35529;44.342;25.944;2023-03-16T09:59:12;100387.88;;;6.99;100.00
49122;BME280;35529;44.342;25.944;2023-03-16T10:01:42;100399.06;;;7.01;100.00
49122;BME280;35529;44.342;25.944;2023-03-16T10:04:35;100394.44;;;7.03;100.00
49122;BME280;35529;44.342;25.944;2023-03-16T10:09:32;100389.47;;;7.09;100.00
49122;BME280;35529;44.342;25.944;2023-03-16T10:12:00;100400.72;;;7.02;100.00
49122;BME280;35529;44.342;25.944;2023-03-16T10:17:01;100398.19;;;7.09;100.00
49122;BME280;35529;44.342;25.944;2023-03-16T10:21:59;100395.38;;;7.11;100.00
49122;BME280;35529;44.342;25.944;2023-03-16T10:24:35;100400.44;;;7.20;100.00
49122;BME280;35529;44.342;25.944;2023-03-16T10:27:04;100395.25;;;7.27;100.00
49122;BME280;35529;44.342;25.944;2023-03-16T10:29:34;100401.94;;;7.38;100.00
49122;BME280;35529;44.342;25.944;2023-03-16T10:32:07;100403.41;;;7.41;100.00
49122;BME280;35529;44.342;25.944;2023-03-16T10:34:36;100395.88;;;7.52;100.00
49122;BME280;35529;44.342;25.944;2023-03-16T10:37:03;100399.41;;;7.68;100.00
49122;BME280;35529;44.342;25.944;2023-03-16T10:39:35;100404.97;;;7.73;100.00
49122;BME280;35529;44.342;25.944;2023-03-16T10:42:14;100396.50;;;7.78;100.00
49122;BME280;35529;44.342;25.944;2023-03-16T10:44:41;100399.69;;;7.88;100.00
49122;BME280;35529;44.342;25.944;2023-03-16T10:47:15;100396.69;;;7.91;100.00
49122;BME280;35529;44.342;25.944;2023-03-16T10:49:42;100403.16;;;8.03;100.00
49122;BME280;35529;44.342;25.944;2023-03-16T10:54:39;100402.44;;;7.95;100.00
49122;BME280;35529;44.342;25.944;2023-03-16T10:57:39;100407.25;;;7.91;100.00
49122;BME280;35529;44.342;25.944;2023-03-16T10:59:59;100407.25;;;7.91;100.00
49122;BME280;35529;44.342;25.944;2023-03-16T11:02:33;100404.88;;;7.81;100.00
49122;BME280;35529;44.342;25.944;2023-03-16T11:05:10;100410.81;;;7.83;100.00
49122;BME280;35529;44.342;25.944;2023-03-16T11:07:37;100411.75;;;7.91;100.00
49122;BME280;35529;44.342;25.944;2023-03-16T11:10:11;100410.75;;;7.92;100.00
49122;BME280;35529;44.342;25.944;2023-03-16T11:12:38;100406.97;;;7.86;100.00
49122;BME280;35529;44.342;25.944;2023-03-16T11:15:09;100409.19;;;7.82;100.00
49122;BME280;35529;44.342;25.944;2023-03-16T11:17:44;100407.88;;;7.78;100.00
49122;BME280;35529;44.342;25.944;2023-03-16T11:20:13;100409.53;;;7.79;100.00
49122;BME280;35529;44.342;25.944;2023-03-16T11:22:42;100413.25;;;7.85;100.00
49122;BME280;35529;44.342;25.944;2023-03-16T11:33:07;100410.09;;;8.04;100.00
49122;BME280;35529;44.342;25.944;2023-03-16T11:38:12;100408.22;;;8.13;100.00
49122;BME280;35529;44.342;25.944;2023-03-16T11:40:51;100412.13;;;8.17;100.00
49122;BME280;35529;44.342;25.944;2023-03-16T11:51:24;100428.19;;;8.31;100.00
49122;BME280;35529;44.342;25.944;2023-03-16T11:59:32;100420.78;;;8.26;100.00
49122;BME280;35529;44.342;25.944;2023-03-16T12:10:21;100434.47;;;8.45;100.00
49122;BME280;35529;44.342;25.944;2023-03-16T12:12:57;100434.94;;;8.48;100.00
49122;BME280;35529;44.342;25.944;2023-03-16T12:15:40;100437.03;;;8.53;100.00
49122;BME280;35529;44.342;25.944;2023-03-16T12:23:43;100442.78;;;8.57;100.00
49122;BME280;35529;44.342;25.944;2023-03-16T12:26:07;100446.91;;;8.59;100.00
49122;BME280;35529;44.342;25.944;2023-03-16T12:28:33;100434.13;;;8.63;100.00
49122;BME280;35529;44.342;25.944;2023-03-16T12:31:06;100451.72;;;8.70;100.00
49122;BME280;35529;44.342;25.944;2023-03-16T12:33:46;100455.19;;;8.71;100.00
49122;BME280;35529;44.342;25.944;2023-03-16T12:38:52;100459.66;;;8.70;100.00
49122;BME280;35529;44.342;25.944;2023-03-16T12:46:41;100473.44;;;8.66;100.00
49122;BME280;35529;44.342;25.944;2023-03-16T12:49:12;100473.06;;;8.69;100.00
49122;BME280;35529;44.342;25.944;2023-03-16T12:51:40;100470.09;;;8.72;100.00
49122;BME280;35529;44.342;25.944;2023-03-16T12:54:27;100480.91;;;8.77;100.00
49122;BME280;35529;44.342;25.944;2023-03-16T12:57:03;100479.38;;;8.83;100.00
49122;BME280;35529;44.342;25.944;2023-03-16T12:59:37;100476.88;;;8.81;100.00
49122;BME280;35529;44.342;25.944;2023-03-16T13:02:07;100480.09;;;8.77;100.00
49122;BME280;35529;44.342;25.944;2023-03-16T13:04:38;100488.22;;;8.75;100.00
49122;BME280;35529;44.342;25.944;2023-03-16T13:07:06;100488.16;;;8.68;100.00
49122;BME280;35529;44.342;25.944;2023-03-16T13:09:39;100492.25;;;8.71;100.00
49122;BME280;35529;44.342;25.944;2023-03-16T13:27:27;100510.38;;;9.04;100.00
49122;BME280;35529;44.342;25.944;2023-03-16T13:29:56;100514.47;;;9.06;100.00
49122;BME280;35529;44.342;25.944;2023-03-16T13:32:23;100520.81;;;9.05;100.00
49122;BME280;35529;44.342;25.944;2023-03-16T13:34:52;100519.22;;;9.11;100.00
49122;BME280;35529;44.342;25.944;2023-03-16T13:37:21;100522.69;;;9.12;100.00
49122;BME280;35529;44.342;25.944;2023-03-16T13:40:01;100523.97;;;9.16;100.00
49122;BME280;35529;44.342;25.944;2023-03-16T13:42:29;100529.34;;;9.22;100.00
49122;BME280;35529;44.342;25.944;2023-03-16T13:44:58;100523.50;;;9.27;100.00
49122;BME280;35529;44.342;25.944;2023-03-16T13:47:32;100529.22;;;9.31;100.00
49122;BME280;35529;44.342;25.944;2023-03-16T13:49:58;100526.84;;;9.36;100.00
49122;BME280;35529;44.342;25.944;2023-03-16T13:52:31;100530.94;;;9.38;100.00
49122;BME280;35529;44.342;25.944;2023-03-16T13:54:58;100530.19;;;9.45;100.00
49122;BME280;35529;44.342;25.944;2023-03-16T13:57:26;100530.63;;;9.48;100.00
49122;BME280;35529;44.342;25.944;2023-03-16T14:02:35;100523.78;;;9.54;100.00
49122;BME280;35529;44.342;25.944;2023-03-16T14:05:43;100530.69;;;9.55;100.00
49122;BME280;35529;44.342;25.944;2023-03-16T14:07:51;100538.84;;;9.53;100.00
49122;BME280;35529;44.342;25.944;2023-03-16T14:10:17;100540.31;;;9.56;100.00